sensor_id;sensor_type;location;lat;lon;timestamp;pressure;altitude;pressure_sealevel;temperature;humidity
63493;BME280;49638;47.526;10.028;2023-05-23T00:00:45;91577.56;;;14.44;77.82
63493;BME280;49638;47.526;10.028;2023-05-23T00:03:47;91572.50;;;14.43;77.78
63493;BME280;49638;47.526;10.028;2023-05-23T00:06:48;91575.19;;;14.48;77.93
63493;BME280;49638;47.526;10.028;2023-05-23T00:09:49;91579.19;;;14.51;78.53
63493;BME280;49638;47.526;10.028;2023-05-23T00:12:49;91573.06;;;14.50;78.47
63493;BME280;49638;47.526;10.028;2023-05-23T00:15:51;91581.03;;;14.50;78.96
63493;BME280;49638;47.526;10.028;2023-05-23T00:18:51;91578.38;;;14.55;78.94
63493;BME280;49638;47.526;10.028;2023-05-23T00:21:52;91584.22;;;14.57;79.32
63493;BME280;49638;47.526;10.028;2023-05-23T00:24:55;91587.16;;;14.61;79.40
63493;BME280;49638;47.526;10.028;2023-05-23T00:27:56;91553.91;;;14.48;79.18
63493;BME280;49638;47.526;10.028;2023-05-23T00:30:57;91574.59;;;14.66;79.32
63493;BME280;49638;47.526;10.028;2023-05-23T00:33:57;91574.06;;;14.70;79.54
63493;BME280;49638;47.526;10.028;2023-05-23T00:36:57;91568.25;;;14.68;79.86
63493;BME280;49638;47.526;10.028;2023-05-23T00:39:57;91563.72;;;14.68;79.82
63493;BME280;49638;47.526;10.028;2023-05-23T00:42:58;91575.13;;;14.74;79.90
63493;BME280;49638;47.526;10.028;2023-05-23T00:45:59;91567.13;;;14.74;80.12
63493;BME280;49638;47.526;10.028;2023-05-23T00:48:59;91567.41;;;14.67;80.17
63493;BME280;49638;47.526;10.028;2023-05-23T00:52:00;91568.78;;;14.64;80.40
63493;BME280;49638;47.526;10.028;2023-05-23T00:55:00;91578.31;;;14.71;80.50
63493;BME280;49638;47.526;10.028;2023-05-23T00:58:01;91582.31;;;14.73;79.69
63493;BME280;49638;47.526;10.028;2023-05-23T01:01:01;91583.09;;;14.74;79.53
63493;BME280;49638;47.526;10.028;2023-05-23T01:04:02;91582.59;;;14.72;79.52
63493;BME280;49638;47.526;10.028;2023-05-23T01:07:03;91575.44;;;14.62;79.94
63493;BME280;49638;47.526;10.028;2023-05-23T01:10:04;91571.44;;;14.49;80.13
63493;BME280;49638;47.526;10.028;2023-05-23T01:13:28;91576.78;;;14.44;82.64
63493;BME280;49638;47.526;10.028;2023-05-23T01:16:46;91566.94;;;14.39;81.53
63493;BME280;49638;47.526;10.028;2023-05-23T01:19:54;91578.13;;;14.41;80.71
63493;BME280;49638;47.526;10.028;2023-05-23T01:29:24;91568.28;;;14.42;82.79
63493;BME280;49638;47.526;10.028;2023-05-23T01:32:26;91562.94;;;14.42;81.42
63493;BME280;49638;47.526;10.028;2023-05-23T01:35:28;91561.63;;;14.39;81.24
63493;BME280;49638;47.526;10.028;2023-05-23T01:38:30;91568.00;;;14.33;81.75
63493;BME280;49638;47.526;10.028;2023-05-23T01:41:30;91561.38;;;14.26;81.76
63493;BME280;49638;47.526;10.028;2023-05-23T01:44:32;91562.72;;;14.23;81.81
63493;BME280;49638;47.526;10.028;2023-05-23T01:47:34;91569.91;;;14.28;81.71
63493;BME280;49638;47.526;10.028;2023-05-23T01:50:35;91578.13;;;14.26;82.11
63493;BME280;49638;47.526;10.028;2023-05-23T01:53:36;91578.13;;;14.26;81.98
63493;BME280;49638;47.526;10.028;2023-05-23T01:56:36;91569.09;;;14.22;82.15
63493;BME280;49638;47.526;10.028;2023-05-23T01:59:37;91575.75;;;14.25;82.14
63493;BME280;49638;47.526;10.028;2023-05-23T02:02:38;91587.47;;;14.24;82.73
63493;BME280;49638;47.526;10.028;2023-05-23T02:05:38;91589.03;;;14.19;82.77
63493;BME280;49638;47.526;10.028;2023-05-23T02:08:38;91587.97;;;14.15;83.02
63493;BME280;49638;47.526;10.028;2023-05-23T02:11:38;91564.88;;;14.01;82.61
63493;BME280;49638;47.526;10.028;2023-05-23T02:14:39;91586.66;;;14.13;82.77
63493;BME280;49638;47.526;10.028;2023-05-23T02:17:41;91581.88;;;14.10;83.03
63493;BME280;49638;47.526;10.028;2023-05-23T02:20:41;91585.59;;;14.09;83.10
63493;BME280;49638;47.526;10.028;2023-05-23T02:23:42;91581.88;;;14.10;83.02
63493;BME280;49638;47.526;10.028;2023-05-23T02:26:42;91587.47;;;14.08;83.19
63493;BME280;49638;47.526;10.028;2023-05-23T02:29:42;91593.84;;;14.07;83.27
63493;BME280;49638;47.526;10.028;2023-05-23T02:32:43;91591.19;;;14.07;83.37
63493;BME280;49638;47.526;10.028;2023-05-23T02:35:43;91582.44;;;14.07;83.34
63493;BME280;49638;47.526;10.028;2023-05-23T02:38:43;91581.34;;;14.03;83.52
63493;BME280;49638;47.526;10.028;2023-05-23T02:41:43;91587.47;;;13.98;83.59
63493;BME280;49638;47.526;10.028;2023-05-23T02:44:44;91585.59;;;13.99;83.58
63493;BME280;49638;47.526;10.028;2023-05-23T02:47:44;91582.41;;;13.91;83.79
63493;BME280;49638;47.526;10.028;2023-05-23T02:50:44;91580.28;;;13.88;83.91
63493;BME280;49638;47.526;10.028;2023-05-23T02:53:44;91599.41;;;13.95;83.98
63493;BME280;49638;47.526;10.028;2023-05-23T02:56:45;91594.91;;;13.91;84.16
63493;BME280;49638;47.526;10.028;2023-05-23T02:59:45;91604.47;;;13.92;84.27
63493;BME280;49638;47.526;10.028;2023-05-23T03:02:45;91613.50;;;13.91;84.32
63493;BME280;49638;47.526;10.028;2023-05-23T03:05:46;91597.56;;;13.81;84.43
63493;BME280;49638;47.526;10.028;2023-05-23T03:08:46;91605.53;;;13.86;84.48
63493;BME280;49638;47.526;10.028;2023-05-23T03:11:46;91600.75;;;13.78;84.63
63493;BME280;49638;47.526;10.028;2023-05-23T03:14:47;91604.19;;;13.78;84.86
63493;BME280;49638;47.526;10.028;2023-05-23T03:17:47;91591.16;;;13.71;84.90
63493;BME280;49638;47.526;10.028;2023-05-23T03:20:47;91599.16;;;13.77;84.88
63493;BME280;49638;47.526;10.028;2023-05-23T03:23:47;91601.53;;;13.73;85.03
63493;BME280;49638;47.526;10.028;2023-05-23T03:26:48;91608.19;;;13.76;85.34
63493;BME280;49638;47.526;10.028;2023-05-23T03:29:48;91611.13;;;13.79;85.44
63493;BME280;49638;47.526;10.028;2023-05-23T03:32:48;91606.59;;;13.75;85.54
63493;BME280;49638;47.526;10.028;2023-05-23T03:35:49;91610.06;;;13.80;85.92
63493;BME280;49638;47.526;10.028;2023-05-23T03:38:51;91612.97;;;13.84;85.57
63493;BME280;49638;47.526;10.028;2023-05-23T03:41:52;91609.78;;;13.87;85.79
63493;BME280;49638;47.526;10.028;2023-05-23T03:44:52;91610.59;;;13.87;85.48
63493;BME280;49638;47.526;10.028;2023-05-23T03:47:52;91608.19;;;13.86;86.09
63493;BME280;49638;47.526;10.028;2023-05-23T03:50:52;91601.28;;;13.75;86.35
63493;BME280;49638;47.526;10.028;2023-05-23T03:53:53;91609.25;;;13.85;86.25
63493;BME280;49638;47.526;10.028;2023-05-23T03:56:53;91607.94;;;13.87;86.43
63493;BME280;49638;47.526;10.028;2023-05-23T03:59:53;91614.03;;;13.88;86.34
63493;BME280;49638;47.526;10.028;2023-05-23T04:02:53;91607.66;;;13.84;86.49
63493;BME280;49638;47.526;10.028;2023-05-23T04:05:54;91621.47;;;13.91;86.88
63493;BME280;49638;47.526;10.028;2023-05-23T04:08:56;91617.22;;;13.95;86.75
63493;BME280;49638;47.526;10.028;2023-05-23T04:11:57;91618.56;;;13.98;86.76
63493;BME280;49638;47.526;10.028;2023-05-23T04:14:57;91607.41;;;14.01;86.95
63493;BME280;49638;47.526;10.028;2023-05-23T04:17:57;91618.28;;;14.14;86.70
63493;BME280;49638;47.526;10.028;2023-05-23T04:20:58;91618.81;;;14.22;86.73
63493;BME280;49638;47.526;10.028;2023-05-23T04:24:00;91624.38;;;14.25;86.98
63493;BME280;49638;47.526;10.028;2023-05-23T04:27:01;91619.88;;;14.26;86.99
63493;BME280;49638;47.526;10.028;2023-05-23T04:30:01;91626.25;;;14.35;87.01
63493;BME280;49638;47.526;10.028;2023-05-23T04:33:02;91621.19;;;14.33;87.05
63493;BME280;49638;47.526;10.028;2023-05-23T04:36:03;91635.81;;;14.36;87.33
63493;BME280;49638;47.526;10.028;2023-05-23T04:39:04;91641.41;;;14.44;87.31
63493;BME280;49638;47.526;10.028;2023-05-23T04:42:05;91647.22;;;14.47;87.54
63493;BME280;49638;47.526;10.028;2023-05-23T04:45:07;91645.91;;;14.49;87.35
63493;BME280;49638;47.526;10.028;2023-05-23T04:48:07;91636.88;;;14.50;87.62
63493;BME280;49638;47.526;10.028;2023-05-23T04:51:07;91637.41;;;14.52;87.49
63493;BME280;49638;47.526;10.028;2023-05-23T04:54:07;91623.31;;;14.52;87.22
63493;BME280;49638;47.526;10.028;2023-05-23T04:57:08;91631.53;;;14.60;87.18
63493;BME280;49638;47.526;10.028;2023-05-23T05:00:09;91627.03;;;14.61;87.20
63493;BME280;49638;47.526;10.028;2023-05-23T05:03:09;91622.22;;;14.78;86.75
63493;BME280;49638;47.526;10.028;2023-05-23T05:06:10;91641.78;;;15.08;86.20
63493;BME280;49638;47.526;10.028;2023-05-23T05:09:11;91637.25;;;15.13;86.36
63493;BME280;49638;47.526;10.028;2023-05-23T05:12:11;91631.66;;;15.10;86.28
63493;BME280;49638;47.526;10.028;2023-05-23T05:15:12;91636.16;;;15.20;86.48
63493;BME280;49638;47.526;10.028;2023-05-23T05:18:12;91627.38;;;15.19;86.63
63493;BME280;49638;47.526;10.028;2023-05-23T05:21:13;91631.06;;;15.28;86.83
63493;BME280;49638;47.526;10.028;2023-05-23T05:24:13;91626.78;;;15.32;86.55
63493;BME280;49638;47.526;10.028;2023-05-23T05:27:14;91631.28;;;15.37;86.42
63493;BME280;49638;47.526;10.028;2023-05-23T05:30:15;91616.94;;;15.33;86.08
63493;BME280;49638;47.526;10.028;2023-05-23T05:33:15;91629.84;;;15.55;85.37
63493;BME280;49638;47.526;10.028;2023-05-23T05:36:18;91634.09;;;15.66;84.56
63493;BME280;49638;47.526;10.028;2023-05-23T05:39:19;91633.94;;;15.92;83.92
63493;BME280;49638;47.526;10.028;2023-05-23T05:42:20;91641.84;;;16.07;84.61
63493;BME280;49638;47.526;10.028;2023-05-23T05:45:20;91644.44;;;16.12;84.78
63493;BME280;49638;47.526;10.028;2023-05-23T05:48:21;91641.28;;;16.10;84.54
63493;BME280;49638;47.526;10.028;2023-05-23T05:51:21;91634.56;;;16.18;84.29
63493;BME280;49638;47.526;10.028;2023-05-23T05:54:21;91632.44;;;16.15;84.22
63493;BME280;49638;47.526;10.028;2023-05-23T05:57:22;91632.38;;;16.20;83.72
63493;BME280;49638;47.526;10.028;2023-05-23T06:00:22;91652.06;;;16.29;83.07
63493;BME280;49638;47.526;10.028;2023-05-23T06:03:23;91634.72;;;16.31;82.80
63493;BME280;49638;47.526;10.028;2023-05-23T06:06:23;91639.09;;;16.46;82.48
63493;BME280;49638;47.526;10.028;2023-05-23T06:09:23;91637.66;;;16.59;82.90
63493;BME280;49638;47.526;10.028;2023-05-23T06:12:24;91639.94;;;16.71;82.60
63493;BME280;49638;47.526;10.028;2023-05-23T06:15:24;91640.53;;;16.68;82.45
63493;BME280;49638;47.526;10.028;2023-05-23T06:18:25;91648.00;;;16.66;82.46
63493;BME280;49638;47.526;10.028;2023-05-23T06:21:25;91647.53;;;16.59;83.20
63493;BME280;49638;47.526;10.028;2023-05-23T06:24:26;91643.84;;;16.54;83.82
63493;BME280;49638;47.526;10.028;2023-05-23T06:27:27;91644.91;;;16.53;83.55
63493;BME280;49638;47.526;10.028;2023-05-23T06:30:27;91662.47;;;16.60;83.74
63493;BME280;49638;47.526;10.028;2023-05-23T06:33:28;91649.13;;;16.60;83.98
63493;BME280;49638;47.526;10.028;2023-05-23T06:36:28;91643.78;;;16.60;83.93
63493;BME280;49638;47.526;10.028;2023-05-23T06:39:29;91651.75;;;16.65;83.42
63493;BME280;49638;47.526;10.028;2023-05-23T06:42:29;91643.44;;;16.71;83.09
63493;BME280;49638;47.526;10.028;2023-05-23T06:45:29;91646.81;;;16.82;82.93
63493;BME280;49638;47.526;10.028;2023-05-23T06:48:29;91641.31;;;16.97;82.87
63493;BME280;49638;47.526;10.028;2023-05-23T06:51:30;91641.06;;;17.18;82.75
63493;BME280;49638;47.526;10.028;2023-05-23T06:54:30;91643.72;;;17.23;82.25
63493;BME280;49638;47.526;10.028;2023-05-23T06:57:30;91652.41;;;17.34;82.54
63493;BME280;49638;47.526;10.028;2023-05-23T07:00:31;91647.72;;;17.44;81.25
63493;BME280;49638;47.526;10.028;2023-05-23T07:03:31;91647.63;;;17.73;80.87
63493;BME280;49638;47.526;10.028;2023-05-23T07:06:32;91642.72;;;18.00;79.75
63493;BME280;49638;47.526;10.028;2023-05-23T07:09:34;91654.38;;;18.28;78.81
63493;BME280;49638;47.526;10.028;2023-05-23T07:12:34;91653.22;;;18.48;77.88
63493;BME280;49638;47.526;10.028;2023-05-23T07:15:35;91640.34;;;18.50;78.02
63493;BME280;49638;47.526;10.028;2023-05-23T07:18:35;91641.09;;;18.36;77.96
63493;BME280;49638;47.526;10.028;2023-05-23T07:21:35;91647.91;;;18.29;78.04
63493;BME280;49638;47.526;10.028;2023-05-23T07:24:36;91656.09;;;18.18;78.00
63493;BME280;49638;47.526;10.028;2023-05-23T07:27:37;91648.97;;;18.14;78.60
63493;BME280;49638;47.526;10.028;2023-05-23T07:30:37;91640.69;;;18.10;79.02
63493;BME280;49638;47.526;10.028;2023-05-23T07:33:37;91651.03;;;18.17;79.17
63493;BME280;49638;47.526;10.028;2023-05-23T07:36:38;91634.34;;;18.25;78.78
63493;BME280;49638;47.526;10.028;2023-05-23T07:39:40;91653.03;;;18.44;78.25
63493;BME280;49638;47.526;10.028;2023-05-23T07:42:40;91657.00;;;18.47;77.97
63493;BME280;49638;47.526;10.028;2023-05-23T07:45:41;91654.41;;;18.41;78.06
63493;BME280;49638;47.526;10.028;2023-05-23T07:48:42;91648.66;;;18.34;78.27
63493;BME280;49638;47.526;10.028;2023-05-23T07:51:42;91655.94;;;18.29;78.32
63493;BME280;49638;47.526;10.028;2023-05-23T07:54:42;91658.69;;;18.24;77.92
63493;BME280;49638;47.526;10.028;2023-05-23T07:57:42;91662.47;;;18.23;77.92
63493;BME280;49638;47.526;10.028;2023-05-23T08:00:44;91648.06;;;18.18;77.90
63493;BME280;49638;47.526;10.028;2023-05-23T08:03:44;91659.94;;;18.31;77.58
63493;BME280;49638;47.526;10.028;2023-05-23T08:06:45;91652.22;;;18.43;77.38
63493;BME280;49638;47.526;10.028;2023-05-23T08:09:48;91649.16;;;18.69;76.46
63493;BME280;49638;47.526;10.028;2023-05-23T08:12:48;91649.41;;;18.86;76.16
63493;BME280;49638;47.526;10.028;2023-05-23T08:15:48;91662.50;;;19.02;75.83
63493;BME280;49638;47.526;10.028;2023-05-23T08:18:48;91659.94;;;18.97;75.94
63493;BME280;49638;47.526;10.028;2023-05-23T08:21:49;91673.56;;;18.81;75.94
63493;BME280;49638;47.526;10.028;2023-05-23T08:24:50;91670.03;;;18.67;76.09
63493;BME280;49638;47.526;10.028;2023-05-23T08:27:50;91679.72;;;18.49;76.12
63493;BME280;49638;47.526;10.028;2023-05-23T08:30:50;91684.44;;;18.38;76.05
63493;BME280;49638;47.526;10.028;2023-05-23T08:33:50;91670.06;;;18.34;76.02
63493;BME280;49638;47.526;10.028;2023-05-23T08:36:51;91685.50;;;18.37;76.31
63493;BME280;49638;47.526;10.028;2023-05-23T08:39:51;91689.56;;;18.35;76.10
63493;BME280;49638;47.526;10.028;2023-05-23T08:42:51;91682.91;;;18.32;76.62
63493;BME280;49638;47.526;10.028;2023-05-23T08:45:52;91684.13;;;18.40;76.66
63493;BME280;49638;47.526;10.028;2023-05-23T08:48:53;91672.25;;;18.46;77.06
63493;BME280;49638;47.526;10.028;2023-05-23T08:51:57;91678.97;;;18.62;76.76
63493;BME280;49638;47.526;10.028;2023-05-23T08:55:00;91679.19;;;18.66;76.67
63493;BME280;49638;47.526;10.028;2023-05-23T08:58:00;91688.78;;;18.86;76.46
63493;BME280;49638;47.526;10.028;2023-05-23T09:01:02;91687.81;;;18.96;76.32
63493;BME280;49638;47.526;10.028;2023-05-23T09:04:04;91692.31;;;19.14;74.97
63493;BME280;49638;47.526;10.028;2023-05-23T09:07:06;91677.81;;;19.15;74.90
63493;BME280;49638;47.526;10.028;2023-05-23T09:10:08;91683.09;;;19.20;75.49
63493;BME280;49638;47.526;10.028;2023-05-23T09:13:09;91685.25;;;19.18;75.52
63493;BME280;49638;47.526;10.028;2023-05-23T09:16:09;91675.63;;;19.17;75.66
63493;BME280;49638;47.526;10.028;2023-05-23T09:19:11;91694.81;;;19.24;75.55
63493;BME280;49638;47.526;10.028;2023-05-23T09:22:11;91669.88;;;19.10;74.69
63493;BME280;49638;47.526;10.028;2023-05-23T09:25:12;91693.00;;;19.20;74.59
63493;BME280;49638;47.526;10.028;2023-05-23T09:28:13;91682.56;;;19.18;74.67
63493;BME280;49638;47.526;10.028;2023-05-23T09:31:14;91690.31;;;19.06;74.68
63493;BME280;49638;47.526;10.028;2023-05-23T09:34:15;91685.81;;;18.87;74.12
63493;BME280;49638;47.526;10.028;2023-05-23T09:37:15;91695.81;;;18.63;74.17
63493;BME280;49638;47.526;10.028;2023-05-23T09:40:18;91698.72;;;18.48;75.18
63493;BME280;49638;47.526;10.028;2023-05-23T09:43:20;91702.72;;;18.31;75.68
63493;BME280;49638;47.526;10.028;2023-05-23T09:46:21;91680.03;;;18.10;76.07
63493;BME280;49638;47.526;10.028;2023-05-23T09:49:21;91672.38;;;17.84;76.60
63493;BME280;49638;47.526;10.028;2023-05-23T09:52:22;91693.03;;;17.98;76.68
63493;BME280;49638;47.526;10.028;2023-05-23T09:55:22;91684.81;;;17.94;76.63
63493;BME280;49638;47.526;10.028;2023-05-23T09:58:22;91684.72;;;17.99;76.77
63493;BME280;49638;47.526;10.028;2023-05-23T10:01:24;91681.25;;;17.99;77.38
63493;BME280;49638;47.526;10.028;2023-05-23T10:04:33;91694.47;;;18.09;78.12
63493;BME280;49638;47.526;10.028;2023-05-23T10:07:34;91691.50;;;18.10;78.73
63493;BME280;49638;47.526;10.028;2023-05-23T10:13:53;91683.22;;;18.12;79.87
63493;BME280;49638;47.526;10.028;2023-05-23T10:17:02;91666.22;;;18.22;80.60
63493;BME280;49638;47.526;10.028;2023-05-23T10:20:10;91679.91;;;18.53;79.99
63493;BME280;49638;47.526;10.028;2023-05-23T10:23:11;91685.91;;;18.82;79.60
63493;BME280;49638;47.526;10.028;2023-05-23T10:26:12;91680.09;;;19.08;78.90
63493;BME280;49638;47.526;10.028;2023-05-23T10:29:13;91664.53;;;19.24;78.17
63493;BME280;49638;47.526;10.028;2023-05-23T10:32:13;91668.72;;;19.44;77.55
63493;BME280;49638;47.526;10.028;2023-05-23T10:35:22;91679.13;;;19.45;73.78
63493;BME280;49638;47.526;10.028;2023-05-23T10:38:49;91674.88;;;19.30;73.44
63493;BME280;49638;47.526;10.028;2023-05-23T10:42:01;91670.97;;;19.09;75.92
63493;BME280;49638;47.526;10.028;2023-05-23T10:45:16;91673.91;;;18.94;73.94
63493;BME280;49638;47.526;10.028;2023-05-23T10:48:33;91676.78;;;18.83;74.66
63493;BME280;49638;47.526;10.028;2023-05-23T10:51:37;91683.41;;;18.72;75.34
63493;BME280;49638;47.526;10.028;2023-05-23T10:54:49;91674.88;;;18.51;75.45
63493;BME280;49638;47.526;10.028;2023-05-23T10:58:08;91667.06;;;18.17;75.64
63493;BME280;49638;47.526;10.028;2023-05-23T11:01:14;91673.81;;;17.95;76.57
63493;BME280;49638;47.526;10.028;2023-05-23T11:04:24;91677.72;;;17.84;77.72
63493;BME280;49638;47.526;10.028;2023-05-23T11:07:29;91686.41;;;17.71;78.82
63493;BME280;49638;47.526;10.028;2023-05-23T11:10:30;91671.06;;;17.58;78.52
63493;BME280;49638;47.526;10.028;2023-05-23T11:13:53;91684.31;;;17.68;80.03
63493;BME280;49638;47.526;10.028;2023-05-23T11:16:54;91684.31;;;17.68;79.76
63493;BME280;49638;47.526;10.028;2023-05-23T11:19:57;91689.69;;;17.63;80.83
63493;BME280;49638;47.526;10.028;2023-05-23T11:23:00;91679.94;;;17.53;81.47
63493;BME280;49638;47.526;10.028;2023-05-23T11:26:01;91674.94;;;17.46;81.60
63493;BME280;49638;47.526;10.028;2023-05-23T11:29:02;91680.22;;;17.52;81.71
63493;BME280;49638;47.526;10.028;2023-05-23T11:32:10;91677.06;;;17.49;82.25
63493;BME280;49638;47.526;10.028;2023-05-23T11:35:11;91667.78;;;17.42;82.57
63493;BME280;49638;47.526;10.028;2023-05-23T11:38:13;91662.50;;;17.37;83.58
63493;BME280;49638;47.526;10.028;2023-05-23T11:41:14;91687.38;;;17.32;84.47
63493;BME280;49638;47.526;10.028;2023-05-23T11:44:15;91691.31;;;17.16;85.55
63493;BME280;49638;47.526;10.028;2023-05-23T11:47:16;91703.72;;;17.01;85.93
63493;BME280;49638;47.526;10.028;2023-05-23T11:50:17;91695.81;;;16.91;86.51
63493;BME280;49638;47.526;10.028;2023-05-23T11:53:20;91674.56;;;16.81;87.11
63493;BME280;49638;47.526;10.028;2023-05-23T11:56:21;91686.38;;;16.75;87.66
63493;BME280;49638;47.526;10.028;2023-05-23T11:59:24;91687.00;;;16.62;87.31
63493;BME280;49638;47.526;10.028;2023-05-23T12:02:27;91695.44;;;16.40;87.84
63493;BME280;49638;47.526;10.028;2023-05-23T12:05:28;91687.88;;;16.18;86.74
63493;BME280;49638;47.526;10.028;2023-05-23T12:08:28;91677.53;;;16.06;86.40
63493;BME280;49638;47.526;10.028;2023-05-23T12:11:31;91683.22;;;15.94;86.34
63493;BME280;49638;47.526;10.028;2023-05-23T12:14:32;91676.38;;;15.78;87.13
63493;BME280;49638;47.526;10.028;2023-05-23T12:17:33;91683.34;;;15.74;87.77
63493;BME280;49638;47.526;10.028;2023-05-23T12:20:33;91704.66;;;15.69;87.46
63493;BME280;49638;47.526;10.028;2023-05-23T12:23:36;91688.94;;;15.72;87.14
63493;BME280;49638;47.526;10.028;2023-05-23T12:26:58;91690.56;;;15.63;87.67
63493;BME280;49638;47.526;10.028;2023-05-23T12:30:09;91701.03;;;15.49;91.76
63493;BME280;49638;47.526;10.028;2023-05-23T12:33:10;91693.28;;;15.48;89.02
63493;BME280;49638;47.526;10.028;2023-05-23T12:36:11;91701.56;;;15.46;89.26
63493;BME280;49638;47.526;10.028;2023-05-23T12:39:11;91704.72;;;15.53;89.25
63493;BME280;49638;47.526;10.028;2023-05-23T12:42:12;91714.59;;;15.53;89.35
63493;BME280;49638;47.526;10.028;2023-05-23T12:45:13;91703.69;;;15.44;89.79
63493;BME280;49638;47.526;10.028;2023-05-23T12:48:14;91705.84;;;15.42;90.01
63493;BME280;49638;47.526;10.028;2023-05-23T12:51:15;91720.25;;;15.36;90.60
63493;BME280;49638;47.526;10.028;2023-05-23T12:54:16;91722.38;;;15.34;90.83
63493;BME280;49638;47.526;10.028;2023-05-23T12:57:17;91723.19;;;15.24;91.34
63493;BME280;49638;47.526;10.028;2023-05-23T13:00:17;91718.44;;;15.16;91.80
63493;BME280;49638;47.526;10.028;2023-05-23T13:03:18;91708.59;;;15.17;92.34
63493;BME280;49638;47.526;10.028;2023-05-23T13:06:18;91703.25;;;15.17;92.11
63493;BME280;49638;47.526;10.028;2023-05-23T13:09:19;91712.25;;;15.31;91.76
63493;BME280;49638;47.526;10.028;2023-05-23T13:12:19;91707.44;;;15.43;91.43
63493;BME280;49638;47.526;10.028;2023-05-23T13:15:20;91714.28;;;15.59;91.34
63493;BME280;49638;47.526;10.028;2023-05-23T13:18:20;91705.69;;;15.78;91.49
63493;BME280;49638;47.526;10.028;2023-05-23T13:21:21;91698.38;;;15.99;91.40
63493;BME280;49638;47.526;10.028;2023-05-23T13:24:21;91691.88;;;16.20;90.76
63493;BME280;49638;47.526;10.028;2023-05-23T13:27:21;91683.41;;;16.47;89.95
63493;BME280;49638;47.526;10.028;2023-05-23T13:30:23;91690.47;;;16.62;89.62
63493;BME280;49638;47.526;10.028;2023-05-23T13:33:23;91693.84;;;16.78;89.19
63493;BME280;49638;47.526;10.028;2023-05-23T13:36:23;91672.50;;;16.78;88.45
63493;BME280;49638;47.526;10.028;2023-05-23T13:39:24;91671.47;;;16.98;88.10
63493;BME280;49638;47.526;10.028;2023-05-23T13:42:24;91671.66;;;17.07;87.96
63493;BME280;49638;47.526;10.028;2023-05-23T13:45:25;91660.69;;;17.08;87.09
63493;BME280;49638;47.526;10.028;2023-05-23T13:48:25;91679.22;;;17.23;86.43
63493;BME280;49638;47.526;10.028;2023-05-23T13:51:25;91661.19;;;17.34;85.95
63493;BME280;49638;47.526;10.028;2023-05-23T13:54:26;91663.75;;;17.44;85.66
63493;BME280;49638;47.526;10.028;2023-05-23T13:57:26;91654.03;;;17.54;85.11
63493;BME280;49638;47.526;10.028;2023-05-23T14:00:27;91649.59;;;17.63;84.67
63493;BME280;49638;47.526;10.028;2023-05-23T14:03:27;91659.69;;;17.71;84.36
63493;BME280;49638;47.526;10.028;2023-05-23T14:06:27;91659.38;;;17.72;83.14
63493;BME280;49638;47.526;10.028;2023-05-23T14:09:27;91662.81;;;17.78;83.19
63493;BME280;49638;47.526;10.028;2023-05-23T14:12:28;91652.19;;;17.73;83.01
63493;BME280;49638;47.526;10.028;2023-05-23T14:15:28;91670.47;;;17.85;83.54
63493;BME280;49638;47.526;10.028;2023-05-23T14:18:28;91671.22;;;17.90;83.14
63493;BME280;49638;47.526;10.028;2023-05-23T14:21:28;91668.47;;;17.95;83.52
63493;BME280;49638;47.526;10.028;2023-05-23T14:24:29;91664.22;;;17.94;84.00
63493;BME280;49638;47.526;10.028;2023-05-23T14:27:29;91671.72;;;17.92;84.06
63493;BME280;49638;47.526;10.028;2023-05-23T14:30:29;91680.31;;;17.89;83.77
63493;BME280;49638;47.526;10.028;2023-05-23T14:33:29;91671.28;;;17.85;83.63
63493;BME280;49638;47.526;10.028;2023-05-23T14:36:30;91674.53;;;17.82;83.30
63493;BME280;49638;47.526;10.028;2023-05-23T14:39:30;91678.16;;;17.91;82.87
63493;BME280;49638;47.526;10.028;2023-05-23T14:42:31;91679.69;;;17.98;83.27
63493;BME280;49638;47.526;10.028;2023-05-23T14:45:32;91674.03;;;17.99;82.98
63493;BME280;49638;47.526;10.028;2023-05-23T14:48:32;91682.22;;;18.08;82.58
63493;BME280;49638;47.526;10.028;2023-05-23T14:51:32;91686.25;;;18.05;82.44
63493;BME280;49638;47.526;10.028;2023-05-23T14:54:33;91677.00;;;17.98;82.60
63493;BME280;49638;47.526;10.028;2023-05-23T14:57:33;91679.16;;;17.95;82.90
63493;BME280;49638;47.526;10.028;2023-05-23T15:00:33;91674.94;;;17.89;83.58
63493;BME280;49638;47.526;10.028;2023-05-23T15:03:34;91686.16;;;17.91;83.95
63493;BME280;49638;47.526;10.028;2023-05-23T15:06:34;91675.75;;;17.90;83.46
63493;BME280;49638;47.526;10.028;2023-05-23T15:09:34;91670.88;;;17.97;83.23
63493;BME280;49638;47.526;10.028;2023-05-23T15:12:35;91671.56;;;18.03;82.67
63493;BME280;49638;47.526;10.028;2023-05-23T15:15:36;91669.19;;;18.01;81.93
63493;BME280;49638;47.526;10.028;2023-05-23T15:18:36;91670.88;;;17.97;82.11
63493;BME280;49638;47.526;10.028;2023-05-23T15:21:36;91669.03;;;17.92;81.66
63493;BME280;49638;47.526;10.028;2023-05-23T15:24:37;91658.69;;;17.86;81.66
63493;BME280;49638;47.526;10.028;2023-05-23T15:27:37;91668.53;;;17.90;81.68
63493;BME280;49638;47.526;10.028;2023-05-23T15:30:37;91663.41;;;17.94;80.84
63493;BME280;49638;47.526;10.028;2023-05-23T15:33:38;91651.19;;;17.88;81.32
63493;BME280;49638;47.526;10.028;2023-05-23T15:36:39;91655.66;;;17.92;81.95
63493;BME280;49638;47.526;10.028;2023-05-23T15:39:39;91654.09;;;17.91;82.01
63493;BME280;49638;47.526;10.028;2023-05-23T15:42:39;91653.56;;;17.89;81.97
63493;BME280;49638;47.526;10.028;2023-05-23T15:45:40;91646.41;;;17.85;81.44
63493;BME280;49638;47.526;10.028;2023-05-23T15:48:40;91652.06;;;17.83;81.42
63493;BME280;49638;47.526;10.028;2023-05-23T15:51:40;91644.63;;;17.80;81.44
63493;BME280;49638;47.526;10.028;2023-05-23T15:54:40;91658.00;;;17.80;81.52
63493;BME280;49638;47.526;10.028;2023-05-23T15:57:41;91663.91;;;17.77;81.75